Time;durP1;ratioP1;P1;durP2;ratioP2;P2;SDS_P1;SDS_P2;PMS_P1;PMS_P2;Temp;Humidity;BMP_temperature;BMP_pressure;BME280_temperature;BME280_humidity;BME280_pressure;Samples;Min_cycle;Max_cycle;Signal;HPM_P1;HPM_P2
2021/06/01 00:01:12;;;;;;;4.45;4.15;;;;;;;16.49;53.14;94093.77;828839;71;32522;-80
2021/06/01 00:16:15;;;;;;;4.37;4.08;;;;;;;16.50;53.03;94084.69;827468;71;32667;-79
2021/06/01 00:31:09;;;;;;;4.25;3.95;;;;;;;16.57;52.92;94062.95;834159;71;29688;-79
2021/06/01 00:46:14;;;;;;;4.40;4.10;;;;;;;16.39;53.33;94045.23;827712;71;33246;-79
2021/06/01 01:01:19;;;;;;;4.45;4.15;;;;;;;16.39;53.33;94040.70;827405;71;33172;-78
2021/06/01 01:16:11;;;;;;;4.62;4.22;;;;;;;16.19;53.54;94056.95;828136;71;30243;-79
2021/06/01 01:31:23;;;;;;;4.90;4.50;;;;;;;16.39;54.36;94050.53;794500;74;32204;-80
2021/06/01 01:46:22;;;;;;;5.53;5.05;;;;;;;16.39;56.27;94039.94;834213;71;31395;-79
2021/06/01 02:01:10;;;;;;;5.55;5.05;;;;;;;16.34;56.52;94031.69;830113;71;30299;-80
2021/06/01 02:16:14;;;;;;;5.65;5.25;;;;;;;16.35;56.45;94022.62;827594;71;32717;-78
2021/06/01 02:31:19;;;;;;;5.30;4.90;;;;;;;16.21;56.34;94027.52;828217;71;30268;-79
2021/06/01 02:46:17;;;;;;;5.25;4.80;;;;;;;16.17;56.84;94041.20;827830;71;32680;-78
2021/06/01 03:16:09;;;;;;;4.25;3.95;;;;;;;16.25;57.92;94048.23;823479;71;30037;-80
2021/06/01 03:31:15;;;;;;;4.20;3.90;;;;;;;16.02;62.29;94034.72;793240;74;32824;-78
2021/06/01 03:46:11;;;;;;;4.80;4.40;;;;;;;15.83;62.22;94040.56;828269;71;30334;-75
2021/06/01 04:01:08;;;;;;;5.10;4.70;;;;;;;14.78;63.85;94039.08;829870;71;29682;-81
2021/06/01 04:16:08;;;;;;;4.62;4.22;;;;;;;14.33;65.14;94037.62;834005;71;30220;-80
2021/06/01 04:31:14;;;;;;;4.80;4.40;;;;;;;13.94;65.58;94029.81;833880;71;33186;-78
2021/06/01 04:46:09;;;;;;;5.67;5.17;;;;;;;13.65;68.36;94029.84;819242;71;30338;-78
2021/06/01 05:01:15;;;;;;;5.55;5.03;;;;;;;13.47;70.72;94037.81;827651;71;32670;-78
2021/06/01 05:16:09;;;;;;;4.55;4.15;;;;;;;13.41;70.35;94035.13;825676;71;30268;-76
2021/06/01 05:31:23;;;;;;;4.53;4.12;;;;;;;13.36;71.49;94046.63;835476;71;30397;-78
2021/06/01 05:46:10;;;;;;;4.90;4.50;;;;;;;13.69;70.91;94038.66;828009;71;30310;-78
2021/06/01 06:01:08;;;;;;;5.75;5.28;;;;;;;13.89;69.63;94036.61;828216;71;29830;-75
2021/06/01 06:16:20;;;;;;;5.72;5.08;;;;;;;14.15;68.49;94030.38;827407;71;32723;-78
2021/06/01 06:31:15;;;;;;;4.37;3.87;;;;;;;14.33;67.58;94039.70;827168;71;33198;-77
2021/06/01 06:46:16;;;;;;;6.22;5.37;;;;;;;14.60;66.12;94031.09;828112;71;30256;-77
2021/06/01 07:01:18;;;;;;;4.78;4.45;;;;;;;14.79;65.04;94043.24;827982;71;32686;-79
2021/06/01 07:16:43;;;;;;;3.55;3.27;;;;;;;15.07;63.57;94039.27;808478;72;33187;-82
2021/06/01 07:31:17;;;;;;;3.50;3.20;;;;;;;16.88;59.76;94044.32;834044;71;31506;-80
2021/06/01 08:31:24;;;;;;;6.60;5.87;;;;;;;17.59;57.40;94063.34;834182;71;32719;-78
2021/06/01 08:46:58;;;;;;;7.30;6.60;;;;;;;17.49;57.71;94066.52;815785;72;32930;-79
2021/06/01 09:31:18;;;;;;;5.00;4.60;;;;;;;18.60;50.83;94060.30;834312;71;32855;-78
2021/06/01 09:46:23;;;;;;;5.05;4.65;;;;;;;19.17;50.68;94047.34;828533;71;29623;-80
2021/06/01 10:01:10;;;;;;;8.15;5.55;;;;;;;19.10;48.50;94053.31;835443;71;29194;-77
2021/06/01 10:16:15;;;;;;;5.78;5.28;;;;;;;19.06;48.53;94047.70;828103;71;30351;-78
2021/06/01 10:31:17;;;;;;;7.00;5.67;;;;;;;19.71;46.98;94031.73;834100;71;30377;-76
2021/06/01 12:31:15;;;;;;;7.08;5.62;;;;;;;17.43;54.99;94080.58;827988;71;30466;-75
2021/06/01 12:46:30;;;;;;;5.28;4.87;;;;;;;16.84;57.21;94093.80;829133;71;31825;-76
2021/06/01 13:31:28;;;;;;;3.33;3.12;;;;;;;15.99;62.30;94141.99;829446;71;29272;-78
2021/06/01 13:46:26;;;;;;;3.25;3.05;;;;;;;16.11;63.07;94151.81;827440;71;32689;-77
2021/06/01 14:31:24;;;;;;;4.20;3.85;;;;;;;15.04;67.89;94167.50;827884;71;31864;-78
2021/06/01 15:47:42;;;;;;;2.35;2.20;;;;;;;14.17;67.81;94198.38;834008;71;30065;-77
2021/06/01 17:16:34;;;;;;;3.10;2.80;;;;;;;13.85;69.00;94255.91;827276;71;32779;-78
2021/06/01 17:46:17;;;;;;;4.22;3.83;;;;;;;13.66;70.40;94290.52;822308;71;32827;-78
2021/06/01 18:01:08;;;;;;;6.12;5.53;;;;;;;13.55;70.69;94299.29;834604;71;29655;-78
2021/06/01 20:01:19;;;;;;;5.25;4.20;;;;;;;13.23;75.12;94404.56;835801;71;32662;-80
2021/06/01 20:16:18;;;;;;;2.75;2.50;;;;;;;13.58;74.89;94417.31;813918;71;32738;-80
2021/06/01 20:31:17;;;;;;;3.12;2.55;;;;;;;14.23;72.50;94424.86;828425;71;29826;-81
2021/06/01 20:46:10;;;;;;;2.33;2.22;;;;;;;14.88;70.04;94429.41;829174;71;30283;-84
2021/06/01 21:01:56;;;;;;;2.10;2.00;;;;;;;15.32;68.14;94437.94;828439;71;30352;-82
2021/06/01 21:16:15;;;;;;;1.95;1.85;;;;;;;15.53;67.14;94449.88;827973;71;32742;-80
2021/06/01 21:31:23;;;;;;;2.10;1.90;;;;;;;15.73;67.72;94458.98;829317;71;32750;-79
2021/06/01 21:46:17;;;;;;;2.50;2.30;;;;;;;15.77;67.36;94467.30;828093;71;32646;-82
2021/06/01 22:01:15;;;;;;;2.00;1.90;;;;;;;15.89;67.07;94472.42;827393;71;32690;-81
2021/06/01 22:16:10;;;;;;;2.10;2.00;;;;;;;15.93;66.61;94465.39;828364;71;30227;-80
2021/06/01 22:31:13;;;;;;;2.20;2.10;;;;;;;15.90;65.91;94468.69;828948;71;30127;-82
2021/06/01 22:46:11;;;;;;;2.50;2.30;;;;;;;15.91;65.59;94461.73;828163;71;29762;-80
2021/06/01 23:01:14;;;;;;;2.20;2.10;;;;;;;15.82;65.04;94457.06;834122;71;28792;-80
2021/06/01 23:16:14;;;;;;;3.25;2.35;;;;;;;15.77;64.68;94451.95;827396;71;32221;-79
2021/06/01 23:31:11;;;;;;;2.08;1.98;;;;;;;15.73;64.20;94462.39;828042;71;28752;-80
2021/06/01 23:46:09;;;;;;;2.10;2.00;;;;;;;15.80;63.56;94460.58;828366;71;28734;-79
